• Join FlightAware (Why Join?)
  • Login
  • US Flag 
10:23AM EDT


 

Airport Tracker/Info


-or-


 

Live Flight TrackerFlight Track Log ✈ UAL1206 ✈ 20-May-2013 ✈ KORD - KMCO

Flight Track Log - Related Links

Times and Time Zones

All times are in EDT time to prevent confusion due to time zone crossing. See the UAL1206 flight status page for this flight to view local times or setup timezone preferences in your user account.

Time Position Orientation Groundspeed Altitude Reporting Facility
EDT Latitude Longitude Course Direction KTS MPH feet Rate Location/Type
12:54PM 41.9500 -87.9000 180° South 158 182 1,900  Level Chicago TRACON
12:55PM 41.9000 -87.9000 180° South 192 221 3,900 2,340 Climbing Chicago TRACON
12:56PM 41.6477 -87.7108 180° South  Level Estimated
12:56PM 41.8333 -87.9000 180° South 244 281 6,600  Level Chicago TRACON
12:56PM 41.8047 -87.8953 173° South 243 280 7,700 2,940 Climbing Chicago Center
12:57PM 41.5363 -87.6460 176° South  Level Estimated
12:57PM 41.7347 -87.8906 177° South 254 292 10,500  Level Chicago Center
12:58PM 41.4249 -87.5814 180° South  Level Estimated
12:58PM 41.6592 -87.8889 179° South 268 308 13,500  Level Chicago Center
12:59PM 41.3134 -87.5170 180° South  Level Estimated
12:59PM 41.5758 -87.8692 170° South 302 348 15,100  Level Chicago Center
01:01PM 41.4125 -87.8317 170° South 342 394 19,200 2,220 Climbing Indianapolis Center
01:01PM 41.3825 -87.8239 169° South 349 402 19,800 1,920 Climbing Chicago Center
01:02PM 41.2792 -87.7992 170° South 369 425 21,800 1,920 Climbing Chicago Center
01:03PM 41.1486 -87.7689 170° South 392 451 23,800 1,740 Climbing Chicago Center
01:04PM 41.0372 -87.7433 170° South 403 464 25,500 1,560 Climbing Chicago Center
01:05PM 40.9233 -87.7156 170° South 414 476 27,100 1,440 Climbing Chicago Center
01:06PM 40.8083 -87.6889 170° South 419 482 28,500 1,200 Climbing Chicago Center
01:07PM 40.6908 -87.6614 170° South 426 490 29,600 1,080 Climbing Chicago Center
01:08PM 40.5711 -87.6339 170° South 434 499 30,800 1,200 Climbing Chicago Center
01:09PM 40.4286 -87.6019 170° South 435 501 32,200 1,200 Climbing Chicago Center
01:10PM 40.3133 -87.5464 160° South 441 507 33,400 1,080 Climbing Chicago Center
01:11PM 40.1989 -87.4878 159° South 442 509 34,500 1,140 Climbing Chicago Center
01:12PM 40.1197 -87.4519 161° South 441 507 35,400 1,140 Climbing Indianapolis Center
01:13PM 40.0072 -87.3939 158° South 436 502 36,500 780 Climbing Indianapolis Center
01:14PM 39.8967 -87.3378 159° South 432 497 37,000 240 Climbing Indianapolis Center
01:15PM 39.7619 -87.2700 159° South 435 501 37,000  Level Indianapolis Center
01:16PM 39.6506 -87.2131 159° South 433 498 37,000  Level Indianapolis Center
01:17PM 39.5386 -87.1583 159° South 433 498 37,000  Level Indianapolis Center
01:18PM 39.4267 -87.1022 159° South 433 498 37,000  Level Indianapolis Center
01:19PM 39.3136 -87.0447 159° South 439 505 37,000  Level Indianapolis Center
01:20PM 39.1772 -86.9772 159° South 439 505 37,000  Level Indianapolis Center
01:21PM 39.0606 -86.9200 159° South 444 511 37,000  Level Indianapolis Center
01:22PM 38.9436 -86.8617 159° South 446 513 37,000  Level Indianapolis Center
01:23PM 38.8256 -86.8039 159° South 450 518 37,000  Level Indianapolis Center
01:25PM 38.7075 -86.7450 159° South 451 519 37,000  Level Indianapolis Center
01:26PM 38.5883 -86.6867 159° South 452 520 37,000  Level Indianapolis Center
01:27PM 38.4681 -86.6286 159° South 454 522 37,000  Level Indianapolis Center
01:28PM 38.3481 -86.5703 159° South 456 525 37,000  Level Indianapolis Center
01:29PM 38.2286 -86.5133 159° South 452 520 37,000  Level Indianapolis Center
01:30PM 38.1103 -86.4561 159° South 450 518 37,000  Level Indianapolis Center
01:31PM 37.9922 -86.3986 159° South 450 518 37,000  Level Indianapolis Center
01:32PM 37.8506 -86.3314 159° South 450 518 37,000  Level Indianapolis Center
01:33PM 37.7417 -86.2817 160° South 442 509 37,000  Level Indianapolis Center
01:34PM 37.6219 -86.2250 159° South 448 516 37,000  Level Indianapolis Center
01:35PM 37.5031 -86.1706 160° South 447 514 37,000  Level Indianapolis Center
01:36PM 37.3847 -86.1128 159° South 447 514 37,000  Level Indianapolis Center
01:37PM 37.2656 -86.0575 160° South 449 517 37,000  Level Indianapolis Center
01:38PM 37.1467 -86.0011 159° South 450 518 37,000  Level Indianapolis Center
01:39PM 37.0058 -85.9353 160° South 455 524 37,000  Level Indianapolis Center
01:40PM 36.8856 -85.8797 160° South 453 521 37,000  Level Indianapolis Center
01:41PM 36.7661 -85.8239 159° South 452 520 37,000  Level Indianapolis Center
01:42PM 36.6589 -85.7742 160° South 451 519 37,000  Level Indianapolis Center
01:43PM 36.5147 -85.7092 160° South 458 527 37,000  Level Indianapolis Center
01:44PM 36.3942 -85.6525 159° South 463 533 37,000  Level Indianapolis Center
01:45PM 36.2722 -85.5975 160° South 466 536 37,000  Level Indianapolis Center
01:46PM 36.1511 -85.5442 160° South 464 534 37,000  Level Indianapolis Center
01:46PM 36.1036 -85.5217 159° South 466 536 37,000  Level Atlanta Center
01:47PM 35.9853 -85.4706 161° South 466 536 37,000  Level Atlanta Center
01:48PM 35.8669 -85.4172 160° South 466 536 37,000  Level Atlanta Center
01:49PM 35.7486 -85.3667 161° South 466 536 37,000  Level Atlanta Center
01:50PM 35.6303 -85.3136 160° South 461 531 37,000  Level Atlanta Center
01:51PM 35.5119 -85.2583 159° South 461 531 37,000  Level Atlanta Center
01:52PM 35.3956 -85.2056 160° South 456 525 37,000  Level Atlanta Center
01:53PM 35.2772 -85.1531 160° South 451 519 37,000  Level Atlanta Center
01:54PM 35.1586 -85.1006 160° South 451 519 37,000  Level Atlanta Center
01:55PM 35.0403 -85.0483 160° South 451 519 37,000  Level Atlanta Center
01:56PM 34.9217 -84.9964 160° South 456 525 37,000  Level Atlanta Center
01:57PM 34.7989 -84.9444 161° South 456 525 37,000  Level Atlanta Center
01:58PM 34.6803 -84.8900 159° South 461 531 37,000  Level Atlanta Center
01:59PM 34.5658 -84.8408 161° South 454 522 37,000  Level Atlanta Center
02:00PM 34.4472 -84.7869 159° South 454 522 37,000  Level Atlanta Center
02:01PM 34.3328 -84.7356 160° South 443 510 37,000  Level Atlanta Center
02:02PM 34.2122 -84.6844 161° South 443 510 37,000  Level Atlanta Center
02:03PM 34.0914 -84.6383 162° South 448 516 37,000  Level Atlanta Center
02:04PM 33.9747 -84.5850 159° South 448 516 37,000  Level Atlanta Center
02:05PM 33.8581 -84.5367 161° South 448 516 37,000  Level Atlanta Center
02:06PM 33.7475 -84.4911 161° South 448 516 37,000  Level Atlanta Center
02:07PM 33.6350 -84.4431 160° South 448 516 37,000  Level Atlanta Center
02:08PM 33.5036 -84.3850 160° South 442 509 37,000  Level Atlanta Center
02:09PM 33.3889 -84.3350 160° South 442 509 37,000  Level Atlanta Center
02:10PM 33.2700 -84.2872 161° South 447 514 37,000  Level Atlanta Center
02:11PM 33.1511 -84.2372 161° South 447 514 37,000  Level Atlanta Center
02:12PM 33.0364 -84.1875 160° South 442 509 37,000  Level Atlanta Center
02:13PM 32.9175 -84.1428 162° South 442 509 37,000  Level Atlanta Center
02:14PM 32.8028 -84.0931 160° South 442 509 37,000  Level Atlanta Center
02:15PM 32.6858 -84.0461 161° South 442 509 37,000  Level Atlanta Center
02:16PM 32.5731 -84.0019 162° South 442 509 37,000  Level Atlanta Center
02:17PM 32.4583 -83.9503 159° South 442 509 37,000  Level Atlanta Center
02:18PM 32.3456 -83.9086 163° South 442 509 37,000  Level Atlanta Center
02:19PM 32.2328 -83.8597 160° South 442 509 37,000  Level Atlanta Center
02:20PM 32.1181 -83.8133 161° South 442 509 37,000  Level Atlanta Center
02:21PM 32.0047 -83.7672 161° South 440 506 37,000  Level Jacksonville Center
02:22PM 31.8925 -83.7197 160° South 429 494 37,000 -60 Level Jacksonville Center
02:23PM 31.7967 -83.6650 154° Southeast 429 494 36,900  Descending Jacksonville Center
02:24PM 31.6947 -83.5933 149° Southeast 429 494 37,000  Climbing Jacksonville Center
02:25PM 31.5825 -83.5217 151° Southeast 434 499 37,000  Level Jacksonville Center
02:26PM 31.4806 -83.4528 150° Southeast 434 499 37,000  Level Jacksonville Center
02:27PM 31.3764 -83.3842 151° Southeast 434 499 37,000  Level Jacksonville Center
02:28PM 31.2742 -83.3156 150° Southeast 434 499 37,000 -300 Level Jacksonville Center
02:29PM 31.1722 -83.2469 150° Southeast 429 494 36,500 -1,200 Descending Jacksonville Center
02:30PM 31.0700 -83.1789 150° Southeast 429 494 34,600 -2,400 Descending Jacksonville Center
02:31PM 30.9700 -83.1131 151° Southeast 423 487 31,700 -2,820 Descending Jacksonville Center
02:32PM 30.8656 -83.0428 150° Southeast 423 487 29,000 -2,400 Descending Jacksonville Center
02:33PM 30.7656 -82.9725 149° Southeast 423 487 27,000 -1,020 Descending Jacksonville Center
02:34PM 30.6592 -82.9069 152° Southeast 429 494 27,000  Level Jacksonville Center
02:35PM 30.5525 -82.8369 151° Southeast 435 501 27,000  Level Jacksonville Center
02:36PM 30.4481 -82.7625 148° Southeast 440 506 27,000 -60 Level Jacksonville Center
02:37PM 30.3414 -82.6903 150° Southeast 440 506 26,900 -720 Descending Jacksonville Center
02:38PM 30.2267 -82.6161 151° Southeast 440 506 25,600 -1,020 Descending Jacksonville Center
02:39PM 30.1242 -82.5444 149° Southeast 440 506 24,900 -300 Descending Jacksonville Center
02:40PM 30.0236 -82.4728 148° Southeast 435 501 25,000  Climbing Jacksonville Center
02:41PM 29.9336 -82.4036 146° Southeast 435 501 25,000 -360 Level Jacksonville Center
02:42PM 29.8269 -82.3372 152° Southeast 430 495 24,300 -900 Descending Jacksonville Center
02:43PM 29.7117 -82.2683 153° Southeast 430 495 23,300 -1,020 Descending Jacksonville Center
02:44PM 29.6031 -82.2189 158° South 424 488 22,300 -1,020 Descending Jacksonville Center
02:45PM 29.5044 -82.1506 149° Southeast 419 482 21,300 -1,140 Descending Jacksonville Center
02:46PM 29.4058 -82.0917 153° Southeast 414 476 20,100 -1,620 Descending Jacksonville Center
02:47PM 29.3033 -82.0472 159° South 408 470 18,100 -1,980 Descending Jacksonville Center
02:48PM 29.2031 -82.0100 162° South 387 445 16,200 -1,980 Descending Jacksonville Center
02:49PM 29.1189 -81.9467 147° Southeast 381 438 14,200 -1,920 Descending Jacksonville Center
02:50PM 29.0411 -81.8761 142° Southeast 360 414 12,400 -1,200 Descending Jacksonville Center
02:51PM 28.9697 -81.8103 141° Southeast 351 404 11,900 -900 Descending Jacksonville Center
02:52PM 28.9169 -81.7469 134° Southeast 326 375 10,700 -1,440 Descending Jacksonville Center
02:53PM 28.8744 -81.6550 118° Southeast 309 356 9,100 -840 Descending Jacksonville Center
02:55PM 28.8167 -81.5667 127° Southeast 267 307 9,000 -480 Descending Orlando TRACON
02:56PM 28.7667 -81.5167 139° Southeast 249 287 8,100 -1,200 Descending Orlando TRACON
02:57PM 28.7167 -81.4667 139° Southeast 244 281 6,600 -1,500 Descending Orlando TRACON
02:58PM 28.6667 -81.4000 131° Southeast 230 265 5,200 -1,440 Descending Orlando TRACON